sensor_id;sensor_type;location;lat;lon;timestamp;P1;durP1;ratioP1;P2;durP2;ratioP2
12818;SDS011;6474;53.474;9.894;2022-12-29T00:01:45;0.70;;;0.70;;
12818;SDS011;6474;53.474;9.894;2022-12-29T00:04:13;0.90;;;0.90;;
12818;SDS011;6474;53.474;9.894;2022-12-29T00:06:42;0.90;;;0.90;;
12818;SDS011;6474;53.474;9.894;2022-12-29T00:09:10;1.17;;;1.17;;
12818;SDS011;6474;53.474;9.894;2022-12-29T00:11:38;1.03;;;1.03;;
12818;SDS011;6474;53.474;9.894;2022-12-29T00:14:09;1.00;;;1.00;;
12818;SDS011;6474;53.474;9.894;2022-12-29T00:16:55;2.17;;;1.10;;
12818;SDS011;6474;53.474;9.894;2022-12-29T00:19:23;1.23;;;1.23;;
12818;SDS011;6474;53.474;9.894;2022-12-29T00:22:09;1.10;;;1.10;;
12818;SDS011;6474;53.474;9.894;2022-12-29T00:24:54;1.10;;;1.10;;
12818;SDS011;6474;53.474;9.894;2022-12-29T00:27:40;1.13;;;1.13;;
12818;SDS011;6474;53.474;9.894;2022-12-29T00:30:34;1.37;;;1.37;;
12818;SDS011;6474;53.474;9.894;2022-12-29T00:33:21;4.30;;;1.20;;
12818;SDS011;6474;53.474;9.894;2022-12-29T00:36:10;1.27;;;1.27;;
12818;SDS011;6474;53.474;9.894;2022-12-29T00:38:45;1.30;;;1.30;;
12818;SDS011;6474;53.474;9.894;2022-12-29T00:41:33;1.10;;;1.10;;
12818;SDS011;6474;53.474;9.894;2022-12-29T00:44:18;1.37;;;1.27;;
12818;SDS011;6474;53.474;9.894;2022-12-29T00:46:48;2.60;;;1.50;;
12818;SDS011;6474;53.474;9.894;2022-12-29T00:49:15;0.80;;;0.80;;
12818;SDS011;6474;53.474;9.894;2022-12-29T00:51:59;1.17;;;1.17;;
12818;SDS011;6474;53.474;9.894;2022-12-29T00:54:28;1.43;;;1.43;;
12818;SDS011;6474;53.474;9.894;2022-12-29T00:56:57;1.10;;;1.10;;
12818;SDS011;6474;53.474;9.894;2022-12-29T00:59:25;0.80;;;0.80;;
12818;SDS011;6474;53.474;9.894;2022-12-29T01:01:54;1.20;;;1.20;;
12818;SDS011;6474;53.474;9.894;2022-12-29T01:04:23;1.20;;;1.20;;
12818;SDS011;6474;53.474;9.894;2022-12-29T01:06:51;1.40;;;1.40;;
12818;SDS011;6474;53.474;9.894;2022-12-29T01:09:20;1.43;;;1.43;;
12818;SDS011;6474;53.474;9.894;2022-12-29T01:12:06;1.10;;;1.10;;
12818;SDS011;6474;53.474;9.894;2022-12-29T01:14:35;0.93;;;0.93;;
12818;SDS011;6474;53.474;9.894;2022-12-29T01:17:04;1.27;;;1.27;;
12818;SDS011;6474;53.474;9.894;2022-12-29T01:19:33;1.60;;;1.40;;
12818;SDS011;6474;53.474;9.894;2022-12-29T01:22:01;1.20;;;1.20;;
12818;SDS011;6474;53.474;9.894;2022-12-29T01:24:28;1.20;;;1.20;;
12818;SDS011;6474;53.474;9.894;2022-12-29T01:26:56;1.10;;;1.10;;
12818;SDS011;6474;53.474;9.894;2022-12-29T01:29:24;1.03;;;1.03;;
12818;SDS011;6474;53.474;9.894;2022-12-29T01:31:52;1.07;;;1.07;;
12818;SDS011;6474;53.474;9.894;2022-12-29T01:34:24;1.40;;;1.40;;
12818;SDS011;6474;53.474;9.894;2022-12-29T01:36:51;1.10;;;1.10;;
12818;SDS011;6474;53.474;9.894;2022-12-29T01:39:19;1.00;;;1.00;;
12818;SDS011;6474;53.474;9.894;2022-12-29T01:41:47;1.17;;;1.17;;
12818;SDS011;6474;53.474;9.894;2022-12-29T01:47:15;1.43;;;1.33;;
12818;SDS011;6474;53.474;9.894;2022-12-29T01:49:51;1.70;;;1.37;;
12818;SDS011;6474;53.474;9.894;2022-12-29T01:52:22;1.23;;;1.23;;
12818;SDS011;6474;53.474;9.894;2022-12-29T01:54:53;1.20;;;1.20;;
12818;SDS011;6474;53.474;9.894;2022-12-29T01:57:24;1.33;;;1.33;;
12818;SDS011;6474;53.474;9.894;2022-12-29T01:59:55;1.27;;;1.27;;
12818;SDS011;6474;53.474;9.894;2022-12-29T02:02:27;1.13;;;1.13;;
12818;SDS011;6474;53.474;9.894;2022-12-29T02:05:00;0.97;;;0.97;;
12818;SDS011;6474;53.474;9.894;2022-12-29T02:07:34;1.20;;;1.20;;
12818;SDS011;6474;53.474;9.894;2022-12-29T02:10:02;1.30;;;1.30;;
12818;SDS011;6474;53.474;9.894;2022-12-29T02:12:32;1.13;;;1.13;;
12818;SDS011;6474;53.474;9.894;2022-12-29T02:15:00;1.10;;;1.10;;
12818;SDS011;6474;53.474;9.894;2022-12-29T02:17:42;1.70;;;1.10;;
12818;SDS011;6474;53.474;9.894;2022-12-29T02:23:24;1.27;;;1.27;;
12818;SDS011;6474;53.474;9.894;2022-12-29T02:26:05;1.30;;;1.30;;
12818;SDS011;6474;53.474;9.894;2022-12-29T02:29:11;1.23;;;1.23;;
12818;SDS011;6474;53.474;9.894;2022-12-29T02:32:00;1.10;;;1.10;;
12818;SDS011;6474;53.474;9.894;2022-12-29T02:34:35;1.20;;;1.20;;
12818;SDS011;6474;53.474;9.894;2022-12-29T02:37:13;4.37;;;1.50;;
12818;SDS011;6474;53.474;9.894;2022-12-29T02:39:48;1.27;;;1.20;;
12818;SDS011;6474;53.474;9.894;2022-12-29T02:42:23;1.30;;;1.30;;
12818;SDS011;6474;53.474;9.894;2022-12-29T02:45:02;1.60;;;1.40;;
12818;SDS011;6474;53.474;9.894;2022-12-29T02:47:37;0.93;;;0.93;;
12818;SDS011;6474;53.474;9.894;2022-12-29T02:50:11;1.07;;;1.07;;
12818;SDS011;6474;53.474;9.894;2022-12-29T02:52:44;1.07;;;1.07;;
12818;SDS011;6474;53.474;9.894;2022-12-29T02:55:17;1.03;;;1.03;;
12818;SDS011;6474;53.474;9.894;2022-12-29T02:57:44;1.20;;;1.20;;
12818;SDS011;6474;53.474;9.894;2022-12-29T03:00:13;1.53;;;1.43;;
12818;SDS011;6474;53.474;9.894;2022-12-29T03:02:58;1.10;;;1.10;;
12818;SDS011;6474;53.474;9.894;2022-12-29T03:05:54;1.10;;;1.10;;
12818;SDS011;6474;53.474;9.894;2022-12-29T03:08:34;1.23;;;1.23;;
12818;SDS011;6474;53.474;9.894;2022-12-29T03:11:11;1.50;;;1.50;;
12818;SDS011;6474;53.474;9.894;2022-12-29T03:13:56;1.10;;;1.10;;
12818;SDS011;6474;53.474;9.894;2022-12-29T03:16:47;1.20;;;1.20;;
12818;SDS011;6474;53.474;9.894;2022-12-29T03:19:19;1.50;;;1.50;;
12818;SDS011;6474;53.474;9.894;2022-12-29T03:21:52;1.13;;;1.13;;
12818;SDS011;6474;53.474;9.894;2022-12-29T03:24:43;1.00;;;1.00;;
12818;SDS011;6474;53.474;9.894;2022-12-29T03:27:15;1.00;;;1.00;;
12818;SDS011;6474;53.474;9.894;2022-12-29T03:29:46;0.87;;;0.87;;
12818;SDS011;6474;53.474;9.894;2022-12-29T03:32:20;1.13;;;1.00;;
12818;SDS011;6474;53.474;9.894;2022-12-29T03:34:53;1.00;;;1.00;;
12818;SDS011;6474;53.474;9.894;2022-12-29T03:37:22;0.93;;;0.93;;
12818;SDS011;6474;53.474;9.894;2022-12-29T03:39:55;1.00;;;1.00;;
12818;SDS011;6474;53.474;9.894;2022-12-29T03:42:23;1.07;;;1.07;;
12818;SDS011;6474;53.474;9.894;2022-12-29T03:44:54;1.20;;;1.20;;
12818;SDS011;6474;53.474;9.894;2022-12-29T03:47:23;1.10;;;1.10;;
12818;SDS011;6474;53.474;9.894;2022-12-29T03:49:53;0.90;;;0.90;;
12818;SDS011;6474;53.474;9.894;2022-12-29T03:52:21;1.20;;;1.20;;
12818;SDS011;6474;53.474;9.894;2022-12-29T03:54:48;0.90;;;0.90;;
12818;SDS011;6474;53.474;9.894;2022-12-29T03:57:16;1.10;;;1.10;;
12818;SDS011;6474;53.474;9.894;2022-12-29T03:59:44;0.80;;;0.80;;
12818;SDS011;6474;53.474;9.894;2022-12-29T04:02:12;0.70;;;0.70;;
12818;SDS011;6474;53.474;9.894;2022-12-29T04:04:40;1.00;;;1.00;;
12818;SDS011;6474;53.474;9.894;2022-12-29T04:07:09;0.90;;;0.90;;
12818;SDS011;6474;53.474;9.894;2022-12-29T04:09:37;1.00;;;1.00;;
12818;SDS011;6474;53.474;9.894;2022-12-29T04:12:04;0.77;;;0.77;;
12818;SDS011;6474;53.474;9.894;2022-12-29T04:14:32;0.70;;;0.70;;
12818;SDS011;6474;53.474;9.894;2022-12-29T04:17:00;0.80;;;0.80;;
12818;SDS011;6474;53.474;9.894;2022-12-29T04:19:28;0.90;;;0.90;;
12818;SDS011;6474;53.474;9.894;2022-12-29T04:21:55;0.73;;;0.73;;
12818;SDS011;6474;53.474;9.894;2022-12-29T04:24:25;3.50;;;0.77;;
12818;SDS011;6474;53.474;9.894;2022-12-29T04:26:52;0.80;;;0.80;;
12818;SDS011;6474;53.474;9.894;2022-12-29T04:29:20;1.60;;;0.60;;
12818;SDS011;6474;53.474;9.894;2022-12-29T04:31:48;0.60;;;0.60;;
12818;SDS011;6474;53.474;9.894;2022-12-29T04:34:16;0.80;;;0.80;;
12818;SDS011;6474;53.474;9.894;2022-12-29T04:36:44;0.90;;;0.90;;
12818;SDS011;6474;53.474;9.894;2022-12-29T04:39:11;0.77;;;0.77;;
12818;SDS011;6474;53.474;9.894;2022-12-29T04:41:41;0.43;;;0.43;;
12818;SDS011;6474;53.474;9.894;2022-12-29T04:44:08;0.80;;;0.80;;
12818;SDS011;6474;53.474;9.894;2022-12-29T04:46:36;0.53;;;0.53;;
12818;SDS011;6474;53.474;9.894;2022-12-29T04:49:04;3.83;;;0.60;;
12818;SDS011;6474;53.474;9.894;2022-12-29T04:51:34;0.40;;;0.40;;
12818;SDS011;6474;53.474;9.894;2022-12-29T04:54:03;0.60;;;0.60;;
12818;SDS011;6474;53.474;9.894;2022-12-29T04:56:30;0.30;;;0.30;;
12818;SDS011;6474;53.474;9.894;2022-12-29T04:58:59;0.70;;;0.70;;
12818;SDS011;6474;53.474;9.894;2022-12-29T05:01:27;0.43;;;0.43;;
12818;SDS011;6474;53.474;9.894;2022-12-29T05:03:55;0.40;;;0.40;;
12818;SDS011;6474;53.474;9.894;2022-12-29T05:06:23;0.53;;;0.53;;
12818;SDS011;6474;53.474;9.894;2022-12-29T05:08:51;0.50;;;0.50;;
12818;SDS011;6474;53.474;9.894;2022-12-29T05:11:19;0.40;;;0.40;;
12818;SDS011;6474;53.474;9.894;2022-12-29T05:13:46;0.60;;;0.60;;
12818;SDS011;6474;53.474;9.894;2022-12-29T05:16:15;0.30;;;0.30;;
12818;SDS011;6474;53.474;9.894;2022-12-29T05:18:43;0.53;;;0.53;;
12818;SDS011;6474;53.474;9.894;2022-12-29T05:21:11;0.50;;;0.50;;
12818;SDS011;6474;53.474;9.894;2022-12-29T05:23:39;0.90;;;0.90;;
12818;SDS011;6474;53.474;9.894;2022-12-29T05:26:07;0.63;;;0.63;;
12818;SDS011;6474;53.474;9.894;2022-12-29T05:28:35;0.80;;;0.80;;
12818;SDS011;6474;53.474;9.894;2022-12-29T05:31:02;0.40;;;0.40;;
12818;SDS011;6474;53.474;9.894;2022-12-29T05:33:32;1.17;;;0.73;;
12818;SDS011;6474;53.474;9.894;2022-12-29T05:36:03;0.50;;;0.50;;
12818;SDS011;6474;53.474;9.894;2022-12-29T05:38:32;0.60;;;0.60;;
12818;SDS011;6474;53.474;9.894;2022-12-29T05:41:00;0.83;;;0.83;;
12818;SDS011;6474;53.474;9.894;2022-12-29T05:43:28;0.47;;;0.47;;
12818;SDS011;6474;53.474;9.894;2022-12-29T05:45:56;0.60;;;0.60;;
12818;SDS011;6474;53.474;9.894;2022-12-29T05:48:24;0.53;;;0.53;;
12818;SDS011;6474;53.474;9.894;2022-12-29T05:50:57;0.60;;;0.60;;
12818;SDS011;6474;53.474;9.894;2022-12-29T05:53:24;0.60;;;0.60;;
12818;SDS011;6474;53.474;9.894;2022-12-29T05:55:52;2.47;;;1.17;;
12818;SDS011;6474;53.474;9.894;2022-12-29T05:58:20;0.60;;;0.60;;
12818;SDS011;6474;53.474;9.894;2022-12-29T06:00:48;1.00;;;0.60;;
12818;SDS011;6474;53.474;9.894;2022-12-29T06:03:15;0.50;;;0.50;;
12818;SDS011;6474;53.474;9.894;2022-12-29T06:05:44;0.40;;;0.40;;
12818;SDS011;6474;53.474;9.894;2022-12-29T06:08:13;0.47;;;0.47;;
12818;SDS011;6474;53.474;9.894;2022-12-29T06:10:41;0.90;;;0.67;;
12818;SDS011;6474;53.474;9.894;2022-12-29T06:13:09;0.57;;;0.57;;
12818;SDS011;6474;53.474;9.894;2022-12-29T06:15:36;0.70;;;0.70;;
12818;SDS011;6474;53.474;9.894;2022-12-29T06:18:04;0.63;;;0.63;;
12818;SDS011;6474;53.474;9.894;2022-12-29T06:20:32;0.53;;;0.53;;
12818;SDS011;6474;53.474;9.894;2022-12-29T06:23:00;0.50;;;0.50;;
12818;SDS011;6474;53.474;9.894;2022-12-29T06:25:29;0.40;;;0.40;;
12818;SDS011;6474;53.474;9.894;2022-12-29T06:27:58;0.70;;;0.70;;
12818;SDS011;6474;53.474;9.894;2022-12-29T06:30:26;0.60;;;0.60;;
12818;SDS011;6474;53.474;9.894;2022-12-29T06:32:54;0.60;;;0.60;;
12818;SDS011;6474;53.474;9.894;2022-12-29T06:35:22;0.40;;;0.40;;
12818;SDS011;6474;53.474;9.894;2022-12-29T06:37:49;0.40;;;0.40;;
12818;SDS011;6474;53.474;9.894;2022-12-29T06:40:17;0.60;;;0.60;;
12818;SDS011;6474;53.474;9.894;2022-12-29T06:42:46;0.43;;;0.33;;
12818;SDS011;6474;53.474;9.894;2022-12-29T06:45:14;0.43;;;0.43;;
12818;SDS011;6474;53.474;9.894;2022-12-29T06:47:42;0.40;;;0.40;;
12818;SDS011;6474;53.474;9.894;2022-12-29T06:50:10;0.40;;;0.40;;
12818;SDS011;6474;53.474;9.894;2022-12-29T06:52:42;0.40;;;0.40;;
12818;SDS011;6474;53.474;9.894;2022-12-29T06:55:10;0.37;;;0.37;;
12818;SDS011;6474;53.474;9.894;2022-12-29T06:57:38;0.30;;;0.30;;
12818;SDS011;6474;53.474;9.894;2022-12-29T07:00:08;0.57;;;0.57;;
12818;SDS011;6474;53.474;9.894;2022-12-29T07:02:36;0.40;;;0.40;;
12818;SDS011;6474;53.474;9.894;2022-12-29T07:05:04;0.60;;;0.60;;
12818;SDS011;6474;53.474;9.894;2022-12-29T07:07:33;0.40;;;0.40;;
12818;SDS011;6474;53.474;9.894;2022-12-29T07:10:01;0.90;;;0.90;;
12818;SDS011;6474;53.474;9.894;2022-12-29T07:12:29;0.50;;;0.50;;
12818;SDS011;6474;53.474;9.894;2022-12-29T07:14:57;0.57;;;0.57;;
12818;SDS011;6474;53.474;9.894;2022-12-29T07:17:26;0.80;;;0.80;;
12818;SDS011;6474;53.474;9.894;2022-12-29T07:19:54;0.80;;;0.80;;
12818;SDS011;6474;53.474;9.894;2022-12-29T07:22:22;0.63;;;0.63;;
12818;SDS011;6474;53.474;9.894;2022-12-29T07:24:50;0.80;;;0.80;;
12818;SDS011;6474;53.474;9.894;2022-12-29T07:27:17;0.70;;;0.70;;
12818;SDS011;6474;53.474;9.894;2022-12-29T07:29:45;0.80;;;0.80;;
12818;SDS011;6474;53.474;9.894;2022-12-29T07:32:13;0.60;;;0.60;;
12818;SDS011;6474;53.474;9.894;2022-12-29T07:34:43;0.60;;;0.60;;
12818;SDS011;6474;53.474;9.894;2022-12-29T07:37:14;0.80;;;0.80;;
12818;SDS011;6474;53.474;9.894;2022-12-29T07:39:42;1.00;;;1.00;;
12818;SDS011;6474;53.474;9.894;2022-12-29T07:42:10;0.40;;;0.40;;
12818;SDS011;6474;53.474;9.894;2022-12-29T07:44:38;1.03;;;0.70;;
12818;SDS011;6474;53.474;9.894;2022-12-29T07:47:06;6.70;;;0.60;;
12818;SDS011;6474;53.474;9.894;2022-12-29T07:49:34;0.60;;;0.60;;
12818;SDS011;6474;53.474;9.894;2022-12-29T07:52:03;0.40;;;0.40;;
12818;SDS011;6474;53.474;9.894;2022-12-29T07:54:31;0.40;;;0.40;;
12818;SDS011;6474;53.474;9.894;2022-12-29T07:56:59;0.50;;;0.50;;
12818;SDS011;6474;53.474;9.894;2022-12-29T07:59:27;0.50;;;0.50;;
12818;SDS011;6474;53.474;9.894;2022-12-29T08:01:55;0.90;;;0.90;;
12818;SDS011;6474;53.474;9.894;2022-12-29T08:04:23;0.50;;;0.40;;
12818;SDS011;6474;53.474;9.894;2022-12-29T08:06:51;0.70;;;0.70;;
12818;SDS011;6474;53.474;9.894;2022-12-29T08:09:20;0.60;;;0.60;;
12818;SDS011;6474;53.474;9.894;2022-12-29T08:11:49;0.60;;;0.60;;
12818;SDS011;6474;53.474;9.894;2022-12-29T08:14:17;0.60;;;0.60;;
12818;SDS011;6474;53.474;9.894;2022-12-29T08:16:45;0.50;;;0.50;;
12818;SDS011;6474;53.474;9.894;2022-12-29T08:19:13;1.27;;;0.73;;
12818;SDS011;6474;53.474;9.894;2022-12-29T08:21:41;0.60;;;0.60;;
12818;SDS011;6474;53.474;9.894;2022-12-29T08:24:09;0.70;;;0.70;;
12818;SDS011;6474;53.474;9.894;2022-12-29T08:26:39;0.60;;;0.60;;
12818;SDS011;6474;53.474;9.894;2022-12-29T08:29:06;0.60;;;0.60;;
12818;SDS011;6474;53.474;9.894;2022-12-29T08:31:34;0.50;;;0.50;;
12818;SDS011;6474;53.474;9.894;2022-12-29T08:34:02;0.60;;;0.60;;
12818;SDS011;6474;53.474;9.894;2022-12-29T08:36:30;0.40;;;0.40;;
12818;SDS011;6474;53.474;9.894;2022-12-29T08:38:58;3.03;;;1.20;;
12818;SDS011;6474;53.474;9.894;2022-12-29T08:41:26;0.60;;;0.60;;
12818;SDS011;6474;53.474;9.894;2022-12-29T08:43:55;5.00;;;0.73;;
12818;SDS011;6474;53.474;9.894;2022-12-29T08:46:23;0.50;;;0.50;;
12818;SDS011;6474;53.474;9.894;2022-12-29T08:48:51;0.60;;;0.60;;
12818;SDS011;6474;53.474;9.894;2022-12-29T08:51:20;0.87;;;0.50;;
12818;SDS011;6474;53.474;9.894;2022-12-29T08:53:50;0.77;;;0.77;;
12818;SDS011;6474;53.474;9.894;2022-12-29T08:56:18;0.30;;;0.30;;
12818;SDS011;6474;53.474;9.894;2022-12-29T08:58:46;0.43;;;0.43;;
12818;SDS011;6474;53.474;9.894;2022-12-29T09:01:15;0.40;;;0.40;;
12818;SDS011;6474;53.474;9.894;2022-12-29T09:03:43;0.20;;;0.20;;
12818;SDS011;6474;53.474;9.894;2022-12-29T09:06:31;0.30;;;0.30;;
12818;SDS011;6474;53.474;9.894;2022-12-29T09:09:05;0.10;;;0.10;;
12818;SDS011;6474;53.474;9.894;2022-12-29T09:11:33;0.40;;;0.40;;
12818;SDS011;6474;53.474;9.894;2022-12-29T09:14:01;0.20;;;0.20;;
12818;SDS011;6474;53.474;9.894;2022-12-29T09:16:30;0.30;;;0.30;;
12818;SDS011;6474;53.474;9.894;2022-12-29T09:18:59;0.30;;;0.30;;
12818;SDS011;6474;53.474;9.894;2022-12-29T09:21:27;0.30;;;0.30;;
12818;SDS011;6474;53.474;9.894;2022-12-29T09:23:55;0.50;;;0.50;;
12818;SDS011;6474;53.474;9.894;2022-12-29T09:26:22;0.30;;;0.30;;
12818;SDS011;6474;53.474;9.894;2022-12-29T09:28:51;0.40;;;0.40;;
12818;SDS011;6474;53.474;9.894;2022-12-29T09:31:18;0.20;;;0.20;;
12818;SDS011;6474;53.474;9.894;2022-12-29T09:33:48;4.10;;;0.33;;
12818;SDS011;6474;53.474;9.894;2022-12-29T09:36:15;0.73;;;0.40;;
12818;SDS011;6474;53.474;9.894;2022-12-29T09:38:43;0.77;;;0.40;;
12818;SDS011;6474;53.474;9.894;2022-12-29T09:41:13;0.40;;;0.40;;
12818;SDS011;6474;53.474;9.894;2022-12-29T09:43:51;0.30;;;0.30;;
12818;SDS011;6474;53.474;9.894;2022-12-29T09:46:29;0.60;;;0.60;;
12818;SDS011;6474;53.474;9.894;2022-12-29T09:49:06;0.30;;;0.30;;
12818;SDS011;6474;53.474;9.894;2022-12-29T09:51:44;1.80;;;0.50;;
12818;SDS011;6474;53.474;9.894;2022-12-29T09:54:20;1.03;;;0.50;;
12818;SDS011;6474;53.474;9.894;2022-12-29T09:56:58;0.30;;;0.30;;
12818;SDS011;6474;53.474;9.894;2022-12-29T09:59:26;0.20;;;0.20;;
12818;SDS011;6474;53.474;9.894;2022-12-29T10:02:08;0.50;;;0.33;;
12818;SDS011;6474;53.474;9.894;2022-12-29T10:04:49;0.50;;;0.50;;
12818;SDS011;6474;53.474;9.894;2022-12-29T10:07:22;0.10;;;0.10;;
12818;SDS011;6474;53.474;9.894;2022-12-29T10:10:10;0.83;;;0.23;;
12818;SDS011;6474;53.474;9.894;2022-12-29T10:12:51;0.57;;;0.57;;
12818;SDS011;6474;53.474;9.894;2022-12-29T10:15:30;0.53;;;0.43;;
12818;SDS011;6474;53.474;9.894;2022-12-29T10:18:16;0.43;;;0.40;;
12818;SDS011;6474;53.474;9.894;2022-12-29T10:20:55;0.40;;;0.40;;
12818;SDS011;6474;53.474;9.894;2022-12-29T10:23:28;0.50;;;0.50;;
12818;SDS011;6474;53.474;9.894;2022-12-29T10:26:00;0.63;;;0.57;;
12818;SDS011;6474;53.474;9.894;2022-12-29T10:28:33;0.30;;;0.30;;
12818;SDS011;6474;53.474;9.894;2022-12-29T10:31:05;0.50;;;0.50;;
12818;SDS011;6474;53.474;9.894;2022-12-29T10:33:37;0.50;;;0.50;;
12818;SDS011;6474;53.474;9.894;2022-12-29T10:36:14;0.20;;;0.20;;
12818;SDS011;6474;53.474;9.894;2022-12-29T10:38:48;0.73;;;0.50;;
12818;SDS011;6474;53.474;9.894;2022-12-29T10:41:21;0.47;;;0.47;;
12818;SDS011;6474;53.474;9.894;2022-12-29T10:43:54;0.40;;;0.40;;
12818;SDS011;6474;53.474;9.894;2022-12-29T10:46:24;0.27;;;0.27;;
12818;SDS011;6474;53.474;9.894;2022-12-29T10:48:55;0.40;;;0.40;;
12818;SDS011;6474;53.474;9.894;2022-12-29T10:51:24;0.40;;;0.40;;
12818;SDS011;6474;53.474;9.894;2022-12-29T10:53:57;1.20;;;0.50;;
12818;SDS011;6474;53.474;9.894;2022-12-29T10:56:31;0.10;;;0.10;;
12818;SDS011;6474;53.474;9.894;2022-12-29T10:59:03;0.27;;;0.27;;
12818;SDS011;6474;53.474;9.894;2022-12-29T11:01:36;1.70;;;0.40;;
12818;SDS011;6474;53.474;9.894;2022-12-29T11:04:15;0.67;;;0.60;;
12818;SDS011;6474;53.474;9.894;2022-12-29T11:06:55;1.40;;;0.57;;
12818;SDS011;6474;53.474;9.894;2022-12-29T11:09:25;0.30;;;0.30;;
12818;SDS011;6474;53.474;9.894;2022-12-29T11:12:17;0.53;;;0.53;;
12818;SDS011;6474;53.474;9.894;2022-12-29T11:14:46;0.53;;;0.20;;
12818;SDS011;6474;53.474;9.894;2022-12-29T11:17:15;0.17;;;0.17;;
12818;SDS011;6474;53.474;9.894;2022-12-29T11:19:44;0.83;;;0.40;;
12818;SDS011;6474;53.474;9.894;2022-12-29T11:22:14;0.30;;;0.30;;
12818;SDS011;6474;53.474;9.894;2022-12-29T11:24:49;1.80;;;1.17;;
12818;SDS011;6474;53.474;9.894;2022-12-29T11:27:20;0.17;;;0.17;;
12818;SDS011;6474;53.474;9.894;2022-12-29T11:29:49;0.30;;;0.30;;
12818;SDS011;6474;53.474;9.894;2022-12-29T11:32:18;0.17;;;0.17;;
12818;SDS011;6474;53.474;9.894;2022-12-29T11:34:54;0.10;;;0.10;;
12818;SDS011;6474;53.474;9.894;2022-12-29T11:37:24;1.13;;;0.20;;
12818;SDS011;6474;53.474;9.894;2022-12-29T11:39:56;0.30;;;0.10;;
12818;SDS011;6474;53.474;9.894;2022-12-29T11:42:32;0.43;;;0.43;;
12818;SDS011;6474;53.474;9.894;2022-12-29T11:45:03;0.23;;;0.23;;
12818;SDS011;6474;53.474;9.894;2022-12-29T11:47:36;0.57;;;0.20;;
12818;SDS011;6474;53.474;9.894;2022-12-29T11:50:05;0.33;;;0.30;;
12818;SDS011;6474;53.474;9.894;2022-12-29T11:52:36;0.07;;;0.07;;
12818;SDS011;6474;53.474;9.894;2022-12-29T11:55:06;0.37;;;0.37;;
12818;SDS011;6474;53.474;9.894;2022-12-29T11:57:44;0.40;;;0.40;;
12818;SDS011;6474;53.474;9.894;2022-12-29T12:00:16;0.83;;;0.30;;
12818;SDS011;6474;53.474;9.894;2022-12-29T12:02:51;0.23;;;0.20;;
12818;SDS011;6474;53.474;9.894;2022-12-29T12:05:25;3.73;;;0.20;;
12818;SDS011;6474;53.474;9.894;2022-12-29T12:08:01;0.23;;;0.23;;
12818;SDS011;6474;53.474;9.894;2022-12-29T12:10:42;0.23;;;0.23;;
12818;SDS011;6474;53.474;9.894;2022-12-29T12:13:17;1.60;;;0.43;;
12818;SDS011;6474;53.474;9.894;2022-12-29T12:15:51;3.03;;;0.23;;
12818;SDS011;6474;53.474;9.894;2022-12-29T12:18:30;0.20;;;0.20;;
12818;SDS011;6474;53.474;9.894;2022-12-29T12:21:04;0.20;;;0.20;;
12818;SDS011;6474;53.474;9.894;2022-12-29T12:23:42;3.23;;;0.50;;
12818;SDS011;6474;53.474;9.894;2022-12-29T12:26:21;0.83;;;0.30;;
12818;SDS011;6474;53.474;9.894;2022-12-29T12:28:55;0.33;;;0.33;;
12818;SDS011;6474;53.474;9.894;2022-12-29T12:31:40;0.23;;;0.23;;
12818;SDS011;6474;53.474;9.894;2022-12-29T12:34:13;0.37;;;0.37;;
12818;SDS011;6474;53.474;9.894;2022-12-29T12:36:49;0.33;;;0.33;;
12818;SDS011;6474;53.474;9.894;2022-12-29T12:39:36;0.27;;;0.27;;
12818;SDS011;6474;53.474;9.894;2022-12-29T12:42:19;0.60;;;0.20;;
12818;SDS011;6474;53.474;9.894;2022-12-29T12:45:04;1.50;;;0.50;;
12818;SDS011;6474;53.474;9.894;2022-12-29T12:47:54;1.47;;;0.60;;
12818;SDS011;6474;53.474;9.894;2022-12-29T12:50:38;0.30;;;0.30;;
12818;SDS011;6474;53.474;9.894;2022-12-29T12:56:15;0.10;;;0.10;;
12818;SDS011;6474;53.474;9.894;2022-12-29T12:59:11;0.77;;;0.50;;
12818;SDS011;6474;53.474;9.894;2022-12-29T13:01:50;0.93;;;0.33;;
12818;SDS011;6474;53.474;9.894;2022-12-29T13:04:29;7.00;;;0.77;;
12818;SDS011;6474;53.474;9.894;2022-12-29T13:07:09;1.20;;;0.27;;
12818;SDS011;6474;53.474;9.894;2022-12-29T13:09:51;0.43;;;0.43;;
12818;SDS011;6474;53.474;9.894;2022-12-29T13:12:34;1.90;;;0.20;;
12818;SDS011;6474;53.474;9.894;2022-12-29T13:15:17;0.10;;;0.10;;
12818;SDS011;6474;53.474;9.894;2022-12-29T13:17:56;0.10;;;0.10;;
12818;SDS011;6474;53.474;9.894;2022-12-29T13:20:31;0.40;;;0.40;;
12818;SDS011;6474;53.474;9.894;2022-12-29T13:23:07;0.20;;;0.20;;
12818;SDS011;6474;53.474;9.894;2022-12-29T13:25:41;0.30;;;0.27;;
12818;SDS011;6474;53.474;9.894;2022-12-29T13:28:19;0.20;;;0.20;;
12818;SDS011;6474;53.474;9.894;2022-12-29T13:30:54;0.43;;;0.30;;
12818;SDS011;6474;53.474;9.894;2022-12-29T13:33:27;1.27;;;0.20;;
12818;SDS011;6474;53.474;9.894;2022-12-29T13:36:02;5.30;;;0.60;;
12818;SDS011;6474;53.474;9.894;2022-12-29T13:38:35;1.90;;;0.30;;
12818;SDS011;6474;53.474;9.894;2022-12-29T13:41:06;0.23;;;0.23;;
12818;SDS011;6474;53.474;9.894;2022-12-29T13:43:40;1.70;;;0.90;;
12818;SDS011;6474;53.474;9.894;2022-12-29T13:46:13;0.23;;;0.23;;
12818;SDS011;6474;53.474;9.894;2022-12-29T13:48:46;0.30;;;0.30;;
12818;SDS011;6474;53.474;9.894;2022-12-29T13:51:19;1.00;;;0.53;;
12818;SDS011;6474;53.474;9.894;2022-12-29T13:54:01;0.20;;;0.20;;
12818;SDS011;6474;53.474;9.894;2022-12-29T13:56:38;3.90;;;0.67;;
12818;SDS011;6474;53.474;9.894;2022-12-29T13:59:14;0.90;;;0.30;;
12818;SDS011;6474;53.474;9.894;2022-12-29T14:01:50;0.87;;;0.50;;
12818;SDS011;6474;53.474;9.894;2022-12-29T14:04:24;0.30;;;0.30;;
12818;SDS011;6474;53.474;9.894;2022-12-29T14:06:58;0.40;;;0.40;;
12818;SDS011;6474;53.474;9.894;2022-12-29T14:09:41;1.80;;;0.30;;
12818;SDS011;6474;53.474;9.894;2022-12-29T14:12:20;0.20;;;0.20;;
12818;SDS011;6474;53.474;9.894;2022-12-29T14:15:02;0.17;;;0.17;;
12818;SDS011;6474;53.474;9.894;2022-12-29T14:17:42;1.07;;;0.57;;
12818;SDS011;6474;53.474;9.894;2022-12-29T14:20:16;0.10;;;0.10;;
12818;SDS011;6474;53.474;9.894;2022-12-29T14:22:55;1.70;;;0.40;;
12818;SDS011;6474;53.474;9.894;2022-12-29T14:28:24;0.10;;;0.10;;
12818;SDS011;6474;53.474;9.894;2022-12-29T14:30:56;0.20;;;0.20;;
12818;SDS011;6474;53.474;9.894;2022-12-29T14:33:25;0.83;;;0.70;;
12818;SDS011;6474;53.474;9.894;2022-12-29T14:35:55;0.10;;;0.10;;
12818;SDS011;6474;53.474;9.894;2022-12-29T14:38:25;0.53;;;0.23;;
12818;SDS011;6474;53.474;9.894;2022-12-29T14:41:17;0.30;;;0.30;;
12818;SDS011;6474;53.474;9.894;2022-12-29T14:43:52;2.90;;;0.23;;
12818;SDS011;6474;53.474;9.894;2022-12-29T14:46:24;0.20;;;0.20;;
12818;SDS011;6474;53.474;9.894;2022-12-29T14:48:56;0.87;;;0.20;;
12818;SDS011;6474;53.474;9.894;2022-12-29T14:51:29;0.30;;;0.30;;
12818;SDS011;6474;53.474;9.894;2022-12-29T14:54:01;1.90;;;0.53;;
12818;SDS011;6474;53.474;9.894;2022-12-29T14:57:09;1.60;;;0.30;;
12818;SDS011;6474;53.474;9.894;2022-12-29T14:59:45;0.40;;;0.30;;
12818;SDS011;6474;53.474;9.894;2022-12-29T15:02:15;2.77;;;0.30;;
12818;SDS011;6474;53.474;9.894;2022-12-29T15:04:46;0.20;;;0.20;;
12818;SDS011;6474;53.474;9.894;2022-12-29T15:07:14;0.37;;;0.37;;
12818;SDS011;6474;53.474;9.894;2022-12-29T15:09:46;0.40;;;0.40;;
12818;SDS011;6474;53.474;9.894;2022-12-29T15:12:21;0.40;;;0.30;;
12818;SDS011;6474;53.474;9.894;2022-12-29T15:14:58;0.50;;;0.50;;
12818;SDS011;6474;53.474;9.894;2022-12-29T15:17:28;0.70;;;0.60;;
12818;SDS011;6474;53.474;9.894;2022-12-29T15:19:57;0.40;;;0.40;;
12818;SDS011;6474;53.474;9.894;2022-12-29T15:22:27;1.47;;;1.30;;
12818;SDS011;6474;53.474;9.894;2022-12-29T15:24:56;1.87;;;0.90;;
12818;SDS011;6474;53.474;9.894;2022-12-29T15:27:25;0.93;;;0.50;;
12818;SDS011;6474;53.474;9.894;2022-12-29T15:29:57;1.37;;;0.70;;
12818;SDS011;6474;53.474;9.894;2022-12-29T15:32:28;0.77;;;0.77;;
12818;SDS011;6474;53.474;9.894;2022-12-29T15:34:57;1.20;;;0.60;;
12818;SDS011;6474;53.474;9.894;2022-12-29T15:37:28;1.50;;;0.90;;
12818;SDS011;6474;53.474;9.894;2022-12-29T15:40:03;1.20;;;1.03;;
12818;SDS011;6474;53.474;9.894;2022-12-29T15:42:50;0.60;;;0.60;;
12818;SDS011;6474;53.474;9.894;2022-12-29T15:45:24;0.40;;;0.40;;